Time;durP1;ratioP1;P1;durP2;ratioP2;P2;SDS_P1;SDS_P2;PMS_P1;PMS_P2;Temp;Humidity;BMP_temperature;BMP_pressure;BME280_temperature;BME280_humidity;BME280_pressure;Samples;Min_cycle;Max_cycle;Signal;HPM_P1;HPM_P2
2023/05/16 00:01:47;;;;;;;2.00;0.60;;;;;;;16.17;100.00;99594.83;105649;1255;74125;-49
2023/05/16 00:04:13;;;;;;;3.30;0.50;;;;;;;16.15;100.00;99594.44;105420;1254;69032;-47
2023/05/16 00:06:40;;;;;;;0.60;0.40;;;;;;;16.13;100.00;99596.36;105423;1257;72901;-48
2023/05/16 00:09:07;;;;;;;1.80;0.60;;;;;;;16.11;100.00;99597.10;105472;1254;62908;-48
2023/05/16 00:11:33;;;;;;;7.30;0.60;;;;;;;16.09;100.00;99599.38;105488;1253;60543;-48
2023/05/16 00:14:01;;;;;;;2.10;0.50;;;;;;;16.08;100.00;99596.73;105373;1254;72672;-48
2023/05/16 00:16:28;;;;;;;1.90;0.50;;;;;;;16.06;100.00;99602.86;105417;1257;67756;-46
2023/05/16 00:18:59;;;;;;;0.70;0.50;;;;;;;16.05;100.00;99601.89;106508;1254;72300;-46
2023/05/16 00:21:26;;;;;;;0.80;0.50;;;;;;;16.04;100.00;99607.60;105518;1257;61469;-50
2023/05/16 00:23:53;;;;;;;1.90;0.50;;;;;;;16.02;100.00;99608.78;105795;1254;60328;-50
2023/05/16 00:26:20;;;;;;;5.50;0.50;;;;;;;16.01;100.00;99612.30;105445;1257;76243;-50
2023/05/16 00:28:47;;;;;;;1.10;0.50;;;;;;;15.99;100.00;99607.41;105305;1254;69515;-46
2023/05/16 00:31:14;;;;;;;2.20;0.60;;;;;;;15.97;100.00;99610.80;105513;1259;74947;-50
2023/05/16 00:33:41;;;;;;;2.10;0.50;;;;;;;15.95;100.00;99609.30;105409;1260;60440;-47
2023/05/16 00:36:08;;;;;;;2.50;0.50;;;;;;;15.94;100.00;99609.41;105559;1257;61277;-47
2023/05/16 00:38:34;;;;;;;2.10;0.50;;;;;;;15.92;100.00;99605.56;105602;1254;73772;-48
2023/05/16 00:41:01;;;;;;;2.80;0.70;;;;;;;15.89;100.00;99603.74;105382;1257;68006;-49
2023/05/16 00:43:28;;;;;;;1.60;0.50;;;;;;;15.88;100.00;99602.59;105118;1254;73772;-46
2023/05/16 00:45:56;;;;;;;1.20;0.60;;;;;;;15.86;100.00;99601.23;105047;1254;61746;-47
2023/05/16 00:48:23;;;;;;;3.30;0.70;;;;;;;15.84;100.00;99599.58;106384;1254;62326;-47
2023/05/16 00:50:51;;;;;;;1.90;0.60;;;;;;;15.83;100.00;99604.34;105073;1254;74574;-50
2023/05/16 00:53:18;;;;;;;5.90;0.70;;;;;;;15.81;100.00;99597.64;105289;1253;66181;-48
2023/05/16 00:55:45;;;;;;;0.50;0.50;;;;;;;15.80;100.00;99596.13;105291;1254;72633;-50
2023/05/16 00:58:12;;;;;;;2.90;0.60;;;;;;;15.78;100.00;99596.78;104926;1260;60507;-49
2023/05/16 01:00:39;;;;;;;1.10;0.50;;;;;;;15.75;100.00;99595.34;104952;1254;62226;-48
2023/05/16 01:03:06;;;;;;;4.40;0.70;;;;;;;15.73;100.00;99598.59;104926;1253;76263;-50
2023/05/16 01:05:33;;;;;;;0.40;0.40;;;;;;;15.72;100.00;99607.00;104873;1254;67176;-50
2023/05/16 01:07:59;;;;;;;1.90;0.50;;;;;;;15.70;100.00;99601.33;104861;1254;73287;-46
2023/05/16 01:10:31;;;;;;;1.60;0.30;;;;;;;15.69;100.00;99599.09;105340;1258;60961;-50
2023/05/16 01:13:14;;;;;;;1.20;0.50;;;;;;;15.67;100.00;99597.95;109192;1252;59827;-49
2023/05/16 01:15:52;;;;;;;3.40;0.60;;;;;;;15.66;100.00;99596.96;109066;1252;72672;-50
2023/05/16 01:18:30;;;;;;;1.10;0.50;;;;;;;15.64;100.00;99595.63;108935;1253;68152;-50
2023/05/16 01:21:02;;;;;;;0.80;0.50;;;;;;;15.63;100.00;99596.09;108843;1254;74778;-50
2023/05/16 01:23:42;;;;;;;2.90;0.80;;;;;;;15.62;100.00;99592.38;108950;1252;60911;-50
2023/05/16 01:26:19;;;;;;;1.50;0.60;;;;;;;15.62;100.00;99593.10;108981;1253;62436;-51
2023/05/16 01:28:45;;;;;;;1.50;0.50;;;;;;;15.61;100.00;99592.78;109039;1254;74424;-48
2023/05/16 01:31:12;;;;;;;2.30;0.50;;;;;;;15.61;100.00;99587.39;109078;1254;67374;-49
2023/05/16 01:33:39;;;;;;;1.60;0.50;;;;;;;15.60;100.00;99585.63;109152;1254;74682;-48
2023/05/16 01:36:09;;;;;;;0.90;0.50;;;;;;;15.60;100.00;99586.91;109175;1253;62898;-51
2023/05/16 01:38:40;;;;;;;1.60;0.60;;;;;;;15.60;100.00;99585.66;109223;1252;60453;-48
2023/05/16 01:41:09;;;;;;;2.20;0.60;;;;;;;15.59;100.00;99583.67;109025;1252;74728;-49
2023/05/16 01:43:45;;;;;;;1.00;0.50;;;;;;;15.59;100.00;99583.70;109050;1253;68833;-50
2023/05/16 01:46:24;;;;;;;5.40;0.60;;;;;;;15.58;100.00;99579.60;109018;1254;71158;-51
2023/05/16 01:49:00;;;;;;;2.00;0.70;;;;;;;15.57;100.00;99583.13;107785;1257;60655;-47
2023/05/16 01:51:29;;;;;;;1.30;0.50;;;;;;;15.56;100.00;99582.70;105810;1254;60531;-50
2023/05/16 01:54:00;;;;;;;2.50;0.50;;;;;;;15.55;100.00;99579.51;105281;1260;73927;-52
2023/05/16 01:56:26;;;;;;;1.80;0.60;;;;;;;15.53;100.00;99579.04;107119;1251;67070;-47
2023/05/16 01:58:53;;;;;;;1.90;0.50;;;;;;;15.51;100.00;99575.17;105429;1260;73115;-50
2023/05/16 02:01:20;;;;;;;0.90;0.50;;;;;;;15.49;100.00;99570.77;105353;1251;61073;-51
2023/05/16 02:03:47;;;;;;;3.10;0.50;;;;;;;15.48;100.00;99569.42;105466;1256;60459;-48
2023/05/16 02:06:13;;;;;;;0.80;0.50;;;;;;;15.46;100.00;99565.59;105429;1255;74964;-48
2023/05/16 02:08:40;;;;;;;1.20;0.50;;;;;;;15.44;100.00;99568.13;105445;1254;70392;-48
2023/05/16 02:11:07;;;;;;;0.60;0.50;;;;;;;15.42;100.00;99570.20;105419;1254;74178;-50
2023/05/16 02:13:34;;;;;;;2.20;0.50;;;;;;;15.41;100.00;99567.59;105465;1254;61736;-48
2023/05/16 02:16:03;;;;;;;2.20;0.60;;;;;;;15.39;100.00;99564.67;105500;1254;61585;-46
2023/05/16 02:18:30;;;;;;;1.70;0.50;;;;;;;15.37;100.00;99564.11;105438;1254;73809;-47
2023/05/16 02:20:57;;;;;;;0.60;0.50;;;;;;;15.35;100.00;99561.36;105391;1257;67518;-47
2023/05/16 02:23:23;;;;;;;1.20;0.60;;;;;;;15.33;100.00;99562.02;105390;1257;73605;-45
2023/05/16 02:25:52;;;;;;;0.90;0.50;;;;;;;15.31;100.00;99563.77;105409;1257;60536;-51
2023/05/16 02:28:21;;;;;;;2.10;0.60;;;;;;;15.30;100.00;99564.61;106070;1253;60553;-44
2023/05/16 02:30:56;;;;;;;0.60;0.40;;;;;;;15.28;100.00;99565.82;105420;1254;74765;-48
2023/05/16 02:33:25;;;;;;;1.10;0.60;;;;;;;15.26;100.00;99566.30;106692;1254;67503;-44
2023/05/16 02:35:53;;;;;;;2.20;0.50;;;;;;;15.25;100.00;99568.21;106728;1253;72256;-50
2023/05/16 02:38:20;;;;;;;1.10;0.50;;;;;;;15.23;100.00;99571.73;105459;1254;60925;-46
2023/05/16 02:40:47;;;;;;;0.80;0.50;;;;;;;15.23;100.00;99573.97;105510;1253;60964;-51
2023/05/16 02:43:14;;;;;;;2.80;0.50;;;;;;;15.21;100.00;99573.03;107825;1253;75177;-47
2023/05/16 02:45:41;;;;;;;1.00;0.50;;;;;;;15.18;100.00;99573.20;106172;1257;68728;-45
2023/05/16 02:48:08;;;;;;;0.80;0.50;;;;;;;15.17;100.00;99575.62;105419;1254;74907;-43
2023/05/16 02:50:36;;;;;;;2.10;0.50;;;;;;;15.16;100.00;99575.89;105666;1254;60565;-47
2023/05/16 02:53:03;;;;;;;0.80;0.60;;;;;;;15.14;100.00;99572.92;105955;1253;61247;-47
2023/05/16 02:55:30;;;;;;;0.80;0.50;;;;;;;15.12;100.00;99573.44;105538;1259;74006;-44
2023/05/16 02:57:57;;;;;;;0.70;0.50;;;;;;;15.11;100.00;99572.58;105380;1254;68173;-49
2023/05/16 03:00:23;;;;;;;1.00;0.40;;;;;;;15.10;100.00;99573.92;105369;1256;73257;-46
2023/05/16 03:02:50;;;;;;;4.10;0.60;;;;;;;15.09;100.00;99574.70;105479;1257;61837;-46
2023/05/16 03:05:17;;;;;;;2.00;0.50;;;;;;;15.09;100.00;99575.09;105281;1254;60287;-46
2023/05/16 03:07:44;;;;;;;1.20;0.40;;;;;;;15.08;100.00;99578.75;105249;1254;73178;-51
2023/05/16 03:10:11;;;;;;;0.90;0.50;;;;;;;15.07;100.00;99579.55;104934;1257;66960;-47
2023/05/16 03:12:37;;;;;;;1.10;0.60;;;;;;;15.06;100.00;99575.45;104991;1253;71997;-52
2023/05/16 03:15:05;;;;;;;0.80;0.50;;;;;;;15.06;100.00;99574.60;105225;1253;60387;-47
2023/05/16 03:17:32;;;;;;;1.50;0.50;;;;;;;15.06;100.00;99573.30;105669;1253;61939;-51
2023/05/16 03:20:01;;;;;;;0.70;0.50;;;;;;;15.07;100.00;99574.16;105635;1254;76116;-50
2023/05/16 03:22:27;;;;;;;1.00;0.50;;;;;;;15.06;100.00;99570.96;105336;1251;67441;-48
2023/05/16 03:24:55;;;;;;;3.20;0.50;;;;;;;15.06;100.00;99568.22;105130;1257;72351;-45
2023/05/16 03:27:22;;;;;;;2.40;0.50;;;;;;;15.07;100.00;99567.46;105012;1252;60497;-45
2023/05/16 03:29:48;;;;;;;1.50;0.50;;;;;;;15.07;100.00;99565.64;105349;1251;61027;-51
2023/05/16 03:32:15;;;;;;;3.10;0.40;;;;;;;15.06;100.00;99563.38;106490;1251;73002;-43
2023/05/16 03:34:42;;;;;;;0.50;0.40;;;;;;;15.06;100.00;99564.59;105136;1251;70036;-45
2023/05/16 03:37:09;;;;;;;0.50;0.50;;;;;;;15.06;100.00;99565.70;105359;1257;73292;-48
2023/05/16 03:39:36;;;;;;;0.80;0.50;;;;;;;15.07;100.00;99571.64;104924;1254;60596;-48
2023/05/16 03:42:03;;;;;;;2.00;0.50;;;;;;;15.07;100.00;99574.14;104966;1251;62043;-51
2023/05/16 03:44:30;;;;;;;1.10;0.80;;;;;;;15.08;100.00;99576.77;105199;1253;74829;-47
2023/05/16 03:46:57;;;;;;;3.10;0.70;;;;;;;15.09;100.00;99578.19;105072;1252;71025;-46
2023/05/16 03:49:26;;;;;;;2.80;0.50;;;;;;;15.09;100.00;99579.97;105144;1256;73055;-45
2023/05/16 03:51:53;;;;;;;0.60;0.60;;;;;;;15.10;100.00;99585.17;105283;1253;61829;-47
2023/05/16 03:54:21;;;;;;;1.90;0.50;;;;;;;15.09;100.00;99587.38;105098;1251;61217;-50
2023/05/16 03:56:47;;;;;;;0.60;0.40;;;;;;;15.09;100.00;99589.20;105043;1254;72087;-44
2023/05/16 03:59:14;;;;;;;4.30;0.60;;;;;;;15.09;100.00;99594.99;105025;1251;69658;-45
2023/05/16 04:01:41;;;;;;;0.60;0.50;;;;;;;15.09;100.00;99600.20;105007;1254;72649;-47
2023/05/16 04:04:08;;;;;;;0.80;0.60;;;;;;;15.10;100.00;99606.48;105216;1251;60466;-45
2023/05/16 04:06:35;;;;;;;1.10;0.50;;;;;;;15.11;100.00;99606.43;105167;1253;60732;-48
2023/05/16 04:09:02;;;;;;;2.00;0.60;;;;;;;15.11;100.00;99611.27;108050;1253;72067;-46
2023/05/16 04:11:29;;;;;;;0.70;0.50;;;;;;;15.12;100.00;99617.52;105063;1251;67506;-48
2023/05/16 04:13:57;;;;;;;4.80;0.60;;;;;;;15.13;100.00;99619.83;105325;1251;74246;-50
2023/05/16 04:16:24;;;;;;;0.70;0.50;;;;;;;15.13;100.00;99625.96;109276;1253;60038;-49
2023/05/16 04:18:51;;;;;;;1.70;0.50;;;;;;;15.13;100.00;99632.98;109132;1253;59050;-49
2023/05/16 04:21:18;;;;;;;1.40;0.40;;;;;;;15.14;100.00;99633.62;108499;1256;75787;-46
2023/05/16 04:23:45;;;;;;;0.70;0.50;;;;;;;15.15;100.00;99640.45;105101;1254;66240;-44
2023/05/16 04:26:13;;;;;;;0.60;0.50;;;;;;;15.15;100.00;99644.58;104944;1254;72077;-44
2023/05/16 04:28:40;;;;;;;3.30;0.50;;;;;;;15.17;100.00;99648.84;104623;1254;63390;-50
2023/05/16 04:31:07;;;;;;;1.40;0.60;;;;;;;15.19;100.00;99645.48;108908;1253;60593;-49
2023/05/16 04:33:33;;;;;;;0.70;0.50;;;;;;;15.19;100.00;99646.52;108041;1253;74518;-46
2023/05/16 04:36:00;;;;;;;1.20;0.50;;;;;;;15.20;100.00;99653.15;104908;1257;70266;-46
2023/05/16 04:38:27;;;;;;;1.70;0.40;;;;;;;15.21;100.00;99648.19;104896;1254;71674;-48
2023/05/16 04:40:53;;;;;;;0.80;0.50;;;;;;;15.25;100.00;99653.36;105017;1254;61236;-52
2023/05/16 04:43:20;;;;;;;0.80;0.50;;;;;;;15.27;100.00;99657.56;105270;1254;60962;-47
2023/05/16 04:45:47;;;;;;;3.00;0.60;;;;;;;15.28;100.00;99658.37;105132;1257;73756;-49
2023/05/16 04:48:14;;;;;;;4.30;0.40;;;;;;;15.29;100.00;99655.75;105325;1256;67380;-51
2023/05/16 04:50:41;;;;;;;2.60;0.50;;;;;;;15.31;100.00;99654.91;106835;1253;73498;-47
2023/05/16 04:53:08;;;;;;;1.10;0.50;;;;;;;15.33;100.00;99652.81;105140;1256;60533;-46
2023/05/16 04:55:34;;;;;;;3.40;0.60;;;;;;;15.34;100.00;99650.90;105145;1253;60326;-49
2023/05/16 04:58:01;;;;;;;2.00;0.60;;;;;;;15.35;100.00;99654.10;105074;1254;73750;-52
2023/05/16 05:00:28;;;;;;;0.50;0.50;;;;;;;15.36;100.00;99652.55;105054;1254;67655;-47
2023/05/16 05:02:55;;;;;;;1.30;0.60;;;;;;;15.37;100.00;99647.23;105154;1254;73221;-46
2023/05/16 05:05:22;;;;;;;2.70;0.60;;;;;;;15.37;100.00;99641.08;105174;1254;61548;-48
2023/05/16 05:07:49;;;;;;;2.10;0.50;;;;;;;15.37;100.00;99635.89;105175;1254;60526;-46
2023/05/16 05:10:16;;;;;;;2.50;0.50;;;;;;;15.34;100.00;99635.50;105376;1256;76069;-45
2023/05/16 05:12:42;;;;;;;0.50;0.50;;;;;;;15.31;100.00;99634.83;105496;1254;68021;-47
2023/05/16 05:15:09;;;;;;;3.60;0.70;;;;;;;15.28;100.00;99643.57;104887;1253;71290;-49
2023/05/16 05:17:36;;;;;;;1.90;0.50;;;;;;;15.26;100.00;99647.64;104939;1254;61117;-50
2023/05/16 05:20:05;;;;;;;1.50;0.60;;;;;;;15.25;100.00;99647.94;105675;1253;61328;-49
2023/05/16 05:22:32;;;;;;;1.60;0.50;;;;;;;15.22;100.00;99648.34;106907;1253;74396;-49
2023/05/16 05:24:59;;;;;;;2.80;0.60;;;;;;;15.20;100.00;99644.32;106361;1253;68714;-46
2023/05/16 05:27:26;;;;;;;3.10;0.50;;;;;;;15.18;100.00;99638.84;105021;1253;72865;-46
2023/05/16 05:29:53;;;;;;;0.60;0.50;;;;;;;15.17;100.00;99646.69;104998;1253;62080;-47
2023/05/16 05:32:20;;;;;;;5.30;0.60;;;;;;;15.14;100.00;99646.67;104696;1254;61098;-46
2023/05/16 05:34:46;;;;;;;1.10;0.60;;;;;;;15.12;100.00;99651.69;104931;1253;76120;-53
2023/05/16 05:37:13;;;;;;;1.20;0.60;;;;;;;15.10;100.00;99657.82;104898;1254;68975;-46
2023/05/16 05:39:40;;;;;;;0.70;0.60;;;;;;;15.08;100.00;99663.69;105101;1253;74799;-47
2023/05/16 05:42:07;;;;;;;1.60;0.70;;;;;;;15.06;100.00;99662.92;105000;1254;60412;-46
2023/05/16 05:44:33;;;;;;;1.10;0.60;;;;;;;15.04;100.00;99662.76;105063;1252;59177;-48
2023/05/16 05:47:00;;;;;;;5.30;0.60;;;;;;;15.01;100.00;99661.68;105121;1252;75233;-47
2023/05/16 05:49:27;;;;;;;3.60;0.60;;;;;;;14.99;100.00;99659.63;105165;1251;67209;-47
2023/05/16 05:51:54;;;;;;;2.70;0.70;;;;;;;14.96;100.00;99652.59;104863;1254;72520;-47
2023/05/16 05:54:22;;;;;;;1.10;0.60;;;;;;;14.95;100.00;99645.30;105044;1254;60881;-45
2023/05/16 05:56:49;;;;;;;2.20;0.70;;;;;;;14.93;100.00;99652.47;105192;1254;62219;-45
2023/05/16 05:59:15;;;;;;;2.40;0.60;;;;;;;14.90;100.00;99658.84;105449;1257;74948;-48
2023/05/16 06:01:45;;;;;;;0.80;0.60;;;;;;;14.86;100.00;99656.39;105629;1257;66991;-45
2023/05/16 06:04:12;;;;;;;0.90;0.50;;;;;;;14.82;100.00;99651.59;105592;1253;70825;-51
2023/05/16 06:06:39;;;;;;;1.10;0.70;;;;;;;14.78;100.00;99648.64;105592;1254;61211;-51
2023/05/16 06:09:06;;;;;;;1.00;0.70;;;;;;;14.74;100.00;99647.77;105607;1254;61445;-52
2023/05/16 06:11:32;;;;;;;0.80;0.70;;;;;;;14.70;100.00;99642.80;105520;1258;74241;-46
2023/05/16 06:13:59;;;;;;;0.70;0.60;;;;;;;14.68;100.00;99640.45;105487;1254;68970;-54
2023/05/16 06:16:26;;;;;;;1.60;0.60;;;;;;;14.66;100.00;99641.46;105582;1254;71937;-47
2023/05/16 06:18:53;;;;;;;1.80;0.60;;;;;;;14.65;100.00;99639.91;105519;1257;60805;-46
2023/05/16 06:21:20;;;;;;;5.30;2.90;;;;;;;14.63;100.00;99639.67;105518;1256;60405;-46
2023/05/16 06:23:47;;;;;;;10.40;7.00;;;;;;;14.61;100.00;99636.92;105455;1257;74172;-48
2023/05/16 06:26:13;;;;;;;6.40;4.50;;;;;;;14.61;100.00;99632.80;105411;1253;66700;-48
2023/05/16 06:28:40;;;;;;;2.50;1.30;;;;;;;14.59;100.00;99626.77;105449;1254;71750;-47
2023/05/16 06:31:07;;;;;;;1.00;0.80;;;;;;;14.58;100.00;99628.63;105520;1254;60869;-47
2023/05/16 06:33:34;;;;;;;0.80;0.70;;;;;;;14.57;100.00;99622.57;105471;1253;60383;-45
2023/05/16 06:39:00;;;;;;;1.50;0.60;;;;;;;14.62;100.00;99618.79;101901;1291;603292;-46
2023/05/16 06:41:27;;;;;;;1.30;0.70;;;;;;;14.63;100.00;99621.42;104143;1268;60582;-48
2023/05/16 06:43:54;;;;;;;4.70;1.90;;;;;;;14.68;100.00;99614.81;103885;1273;59248;-50
2023/05/16 06:46:20;;;;;;;39.70;24.80;;;;;;;14.72;100.00;99604.17;104010;1269;73618;-43
2023/05/16 06:48:47;;;;;;;17.00;11.20;;;;;;;14.77;100.00;99604.23;104038;1267;67086;-46
2023/05/16 06:51:14;;;;;;;5.10;2.40;;;;;;;14.83;100.00;99618.11;103852;1267;74211;-46
2023/05/16 06:53:41;;;;;;;1.60;0.70;;;;;;;14.88;100.00;99611.80;104215;1265;368547;-46
2023/05/16 06:56:08;;;;;;;3.90;0.80;;;;;;;14.93;100.00;99614.13;104524;1271;59211;-50
2023/05/16 06:58:35;;;;;;;2.00;0.60;;;;;;;15.01;100.00;99616.47;104136;1266;70722;-46
2023/05/16 07:01:02;;;;;;;0.80;0.60;;;;;;;15.09;100.00;99618.30;108014;1268;68167;-48
2023/05/16 07:03:30;;;;;;;0.60;0.60;;;;;;;15.17;100.00;99615.77;105237;1266;75326;-43
2023/05/16 07:05:57;;;;;;;3.60;0.60;;;;;;;15.24;100.00;99609.14;104667;1269;62359;-47
2023/05/16 07:08:24;;;;;;;1.50;0.60;;;;;;;15.29;100.00;99617.95;104581;1270;61261;-48
2023/05/16 07:10:51;;;;;;;6.30;0.60;;;;;;;15.35;100.00;99619.58;104572;1266;73383;-50
2023/05/16 07:13:18;;;;;;;0.90;0.60;;;;;;;15.39;100.00;99623.58;104312;1268;69819;-46
2023/05/16 07:15:45;;;;;;;1.00;0.60;;;;;;;15.43;100.00;99621.69;104311;1265;73093;-50
2023/05/16 07:18:11;;;;;;;6.10;0.70;;;;;;;15.46;100.00;99625.78;104362;1266;59869;-48
2023/05/16 07:20:38;;;;;;;3.60;0.70;;;;;;;15.49;100.00;99617.43;104470;1268;61492;-44
2023/05/16 07:23:05;;;;;;;3.70;0.70;;;;;;;15.51;100.00;99619.65;104872;1259;74882;-47
2023/05/16 07:25:32;;;;;;;1.40;0.60;;;;;;;15.54;100.00;99617.32;105243;1260;68294;-49
2023/05/16 07:27:59;;;;;;;1.90;0.60;;;;;;;15.56;100.00;99615.92;105285;1256;74831;-47
2023/05/16 07:30:26;;;;;;;0.90;0.60;;;;;;;15.58;100.00;99613.99;108791;1254;60689;-48
2023/05/16 07:32:53;;;;;;;0.90;0.70;;;;;;;15.59;100.00;99611.69;108860;1254;60604;-47
2023/05/16 07:35:20;;;;;;;0.90;0.60;;;;;;;15.63;100.00;99619.23;108874;1256;74912;-48
2023/05/16 07:37:47;;;;;;;1.30;0.60;;;;;;;15.67;100.00;99622.95;108800;1254;66152;-47
2023/05/16 07:40:14;;;;;;;1.00;0.70;;;;;;;15.69;100.00;99626.22;108785;1254;74312;-47
2023/05/16 07:42:41;;;;;;;1.60;0.50;;;;;;;15.72;100.00;99631.09;108895;1254;62364;-49
2023/05/16 07:45:08;;;;;;;0.80;0.60;;;;;;;15.74;100.00;99635.29;108996;1254;61810;-48
2023/05/16 07:47:35;;;;;;;0.90;0.50;;;;;;;15.74;100.00;99639.91;104803;1254;72173;-48
2023/05/16 07:50:02;;;;;;;0.60;0.40;;;;;;;15.78;100.00;99644.59;104851;1255;67678;-46
2023/05/16 07:52:29;;;;;;;4.20;0.60;;;;;;;15.80;100.00;99645.66;104808;1259;72903;-48
2023/05/16 07:54:56;;;;;;;1.20;0.60;;;;;;;15.82;100.00;99643.02;105021;1258;59666;-52
2023/05/16 07:57:23;;;;;;;1.20;0.60;;;;;;;15.82;100.00;99640.60;104616;1254;62505;-51
2023/05/16 07:59:51;;;;;;;2.10;0.70;;;;;;;15.82;100.00;99632.14;104600;1255;73182;-48
2023/05/16 08:02:18;;;;;;;1.70;0.60;;;;;;;15.82;100.00;99623.23;105873;1258;70328;-47
2023/05/16 08:04:45;;;;;;;4.00;0.60;;;;;;;15.83;100.00;99625.34;105250;1258;72945;-50
2023/05/16 08:07:12;;;;;;;2.00;0.80;;;;;;;15.84;100.00;99635.39;104933;1258;61899;-46
2023/05/16 08:09:39;;;;;;;1.00;0.60;;;;;;;15.86;100.00;99634.02;104505;1254;59660;-51
2023/05/16 08:12:06;;;;;;;4.40;0.60;;;;;;;15.88;100.00;99642.38;104482;1254;71090;-46
2023/05/16 08:14:33;;;;;;;1.20;0.60;;;;;;;15.92;100.00;99652.80;105743;1258;67473;-47
2023/05/16 08:17:00;;;;;;;1.40;0.60;;;;;;;15.95;100.00;99657.82;105345;1254;73463;-49
2023/05/16 08:19:28;;;;;;;0.80;0.50;;;;;;;15.99;100.00;99662.45;105257;1254;59845;-49
2023/05/16 08:21:55;;;;;;;1.10;0.50;;;;;;;16.03;100.00;99661.22;106161;1256;60560;-48
2023/05/16 08:24:22;;;;;;;4.20;0.50;;;;;;;16.07;100.00;99660.36;105231;1254;73829;-48
2023/05/16 08:26:49;;;;;;;0.70;0.50;;;;;;;16.13;100.00;99658.69;105103;1257;67795;-48
2023/05/16 08:29:16;;;;;;;0.70;0.60;;;;;;;16.19;100.00;99653.32;106914;1254;71892;-47
2023/05/16 08:31:43;;;;;;;1.90;0.70;;;;;;;16.26;100.00;99653.20;108398;1256;61834;-46
2023/05/16 08:34:10;;;;;;;2.00;0.70;;;;;;;16.34;100.00;99652.78;108571;1256;59911;-51
2023/05/16 08:36:37;;;;;;;1.40;0.70;;;;;;;16.43;100.00;99649.56;106761;1254;74688;-45
2023/05/16 08:39:04;;;;;;;1.40;0.60;;;;;;;16.53;100.00;99647.57;105034;1256;67138;-48
2023/05/16 08:41:31;;;;;;;3.70;0.80;;;;;;;16.63;100.00;99643.92;105051;1261;72534;-46
2023/05/16 08:43:58;;;;;;;2.80;1.60;;;;;;;16.76;100.00;99643.38;104998;1256;62076;-50
2023/05/16 08:46:25;;;;;;;1.40;0.90;;;;;;;16.87;100.00;99643.02;105210;1258;60878;-51
2023/05/16 08:48:52;;;;;;;2.70;0.80;;;;;;;16.98;100.00;99636.95;105256;1257;75019;-51
2023/05/16 08:51:19;;;;;;;1.80;0.80;;;;;;;17.06;100.00;99628.73;105636;1254;66783;-49
2023/05/16 08:53:51;;;;;;;0.90;0.70;;;;;;;17.12;100.00;99632.40;105164;1260;71953;-50
2023/05/16 08:56:18;;;;;;;1.20;0.60;;;;;;;17.20;100.00;99631.39;105279;1259;59724;-48
2023/05/16 08:58:45;;;;;;;0.80;0.70;;;;;;;17.28;100.00;99627.88;104991;1256;62166;-45
2023/05/16 09:01:12;;;;;;;2.20;0.70;;;;;;;17.35;100.00;99628.22;105130;1258;73760;-49
2023/05/16 09:03:39;;;;;;;1.20;0.60;;;;;;;17.42;100.00;99634.63;105931;1261;67486;-44
2023/05/16 09:06:06;;;;;;;2.30;0.60;;;;;;;17.46;100.00;99633.02;108554;1256;73180;-47
2023/05/16 09:08:34;;;;;;;0.60;0.60;;;;;;;17.48;100.00;99638.69;108251;1256;62180;-45
2023/05/16 09:11:01;;;;;;;1.10;0.50;;;;;;;17.49;100.00;99637.32;106619;1254;60452;-46
2023/05/16 09:13:31;;;;;;;12.60;0.60;;;;;;;17.51;100.00;99642.27;106919;1258;74114;-47
2023/05/16 09:16:14;;;;;;;0.70;0.60;;;;;;;17.52;100.00;99638.56;105393;1261;70153;-49
2023/05/16 09:18:42;;;;;;;0.90;0.50;;;;;;;17.53;100.00;99643.85;105374;1256;74655;-46
2023/05/16 09:21:10;;;;;;;0.80;0.50;;;;;;;17.57;100.00;99645.72;105767;1256;60772;-46
2023/05/16 09:23:37;;;;;;;0.90;0.60;;;;;;;17.63;100.00;99648.22;105391;1256;62582;-50
2023/05/16 09:26:04;;;;;;;0.90;0.60;;;;;;;17.68;100.00;99641.67;105228;1261;72990;-48
2023/05/16 09:28:31;;;;;;;2.60;1.00;;;;;;;17.72;100.00;99640.20;105502;1258;68672;-50
2023/05/16 09:30:58;;;;;;;1.10;0.70;;;;;;;17.75;100.00;99639.05;105148;1255;72161;-49
2023/05/16 09:33:28;;;;;;;2.70;0.60;;;;;;;17.80;100.00;99644.17;105622;1256;61469;-47
2023/05/16 09:35:59;;;;;;;2.80;0.70;;;;;;;17.84;100.00;99651.66;105278;1254;60479;-49
2023/05/16 09:38:26;;;;;;;4.50;0.70;;;;;;;17.86;100.00;99653.85;105382;1255;74154;-49
2023/05/16 09:40:54;;;;;;;3.20;0.60;;;;;;;17.87;100.00;99653.02;106625;1255;66944;-51
2023/05/16 09:43:24;;;;;;;3.10;0.60;;;;;;;17.86;100.00;99651.27;105285;1257;73704;-47
2023/05/16 09:45:51;;;;;;;1.20;0.50;;;;;;;17.85;100.00;99653.23;105526;1255;59924;-51
2023/05/16 09:48:19;;;;;;;1.70;0.70;;;;;;;17.81;100.00;99660.04;105226;1258;62482;-48
2023/05/16 09:50:53;;;;;;;2.30;0.60;;;;;;;17.74;100.00;99659.08;105313;1254;73940;-48
2023/05/16 09:53:27;;;;;;;0.80;0.60;;;;;;;17.69;100.00;99663.67;105611;1258;68947;-47
2023/05/16 09:56:02;;;;;;;2.50;0.60;;;;;;;17.66;100.00;99665.91;105862;1255;74644;-48
2023/05/16 09:58:32;;;;;;;0.90;0.60;;;;;;;17.64;100.00;99661.37;105051;1255;60582;-47
2023/05/16 10:00:58;;;;;;;2.80;0.70;;;;;;;17.63;100.00;99661.98;105004;1255;62082;-49
2023/05/16 10:03:25;;;;;;;0.60;0.60;;;;;;;17.61;100.00;99665.89;105028;1261;73542;-46
2023/05/16 10:05:53;;;;;;;2.30;0.60;;;;;;;17.60;100.00;99665.82;105361;1259;68590;-47
2023/05/16 10:08:24;;;;;;;1.00;0.60;;;;;;;17.58;100.00;99664.55;104964;1259;73856;-48
2023/05/16 10:10:54;;;;;;;3.60;0.60;;;;;;;17.56;100.00;99658.17;104891;1254;62351;-50
2023/05/16 10:13:29;;;;;;;3.60;0.60;;;;;;;17.54;100.00;99658.66;105039;1256;63016;-48
2023/05/16 10:15:57;;;;;;;2.10;0.60;;;;;;;17.53;100.00;99664.73;108808;1254;71816;-49
2023/05/16 10:18:33;;;;;;;2.90;0.60;;;;;;;17.53;100.00;99659.45;108771;1257;68203;-49
2023/05/16 10:21:06;;;;;;;5.20;0.70;;;;;;;17.54;100.00;99652.70;108790;1257;74848;-51
2023/05/16 10:23:37;;;;;;;1.10;0.60;;;;;;;17.51;100.00;99654.04;108818;1260;60979;-47
2023/05/16 10:26:04;;;;;;;3.70;0.50;;;;;;;17.49;100.00;99649.67;108827;1253;62328;-48
2023/05/16 10:28:31;;;;;;;1.00;0.70;;;;;;;17.45;100.00;99649.98;108699;1254;73727;-48
2023/05/16 10:30:58;;;;;;;1.40;0.70;;;;;;;17.40;100.00;99646.69;108987;1255;69170;-47
2023/05/16 10:33:25;;;;;;;2.40;0.60;;;;;;;17.38;100.00;99647.45;108749;1254;74918;-50
2023/05/16 10:35:52;;;;;;;1.80;0.80;;;;;;;17.34;100.00;99647.52;109009;1256;60504;-50
2023/05/16 10:38:19;;;;;;;1.30;0.60;;;;;;;17.31;100.00;99642.86;109029;1254;59368;-47
2023/05/16 10:40:46;;;;;;;1.00;0.50;;;;;;;17.30;100.00;99644.23;108861;1254;73000;-47
2023/05/16 10:43:29;;;;;;;1.20;0.60;;;;;;;17.29;100.00;99640.49;108794;1255;68458;-49
2023/05/16 10:46:01;;;;;;;1.40;0.60;;;;;;;17.30;100.00;99636.79;108838;1254;74835;-47
2023/05/16 10:48:35;;;;;;;1.00;0.80;;;;;;;17.32;100.00;99635.57;108738;1256;59047;-49
2023/05/16 10:51:04;;;;;;;3.60;0.70;;;;;;;17.36;100.00;99636.16;108764;1254;61356;-51
2023/05/16 10:53:32;;;;;;;0.50;0.50;;;;;;;17.42;100.00;99635.52;108784;1257;75474;-47
2023/05/16 10:56:02;;;;;;;1.30;0.60;;;;;;;17.50;100.00;99635.59;108826;1256;67979;-51
2023/05/16 10:58:37;;;;;;;1.60;0.60;;;;;;;17.60;100.00;99630.98;108763;1256;75214;-47
2023/05/16 11:01:16;;;;;;;;;;;;;;;17.71;100.00;99627.20;108783;1256;59410;-47
2023/05/16 11:03:55;;;;;;;1.20;0.60;;;;;;;17.82;100.00;99631.27;106607;1260;60405;-47
2023/05/16 11:06:26;;;;;;;0.90;0.50;;;;;;;17.91;100.00;99625.99;104773;1255;76241;-50
2023/05/16 11:09:04;;;;;;;3.70;0.60;;;;;;;17.98;100.00;99629.73;106084;1258;68548;-46
2023/05/16 11:11:50;;;;;;;0.90;0.60;;;;;;;18.06;100.00;99629.85;105432;1255;72979;-49
2023/05/16 11:14:24;;;;;;;1.00;0.50;;;;;;;18.12;100.00;99627.89;105369;1261;60827;-48
2023/05/16 11:17:08;;;;;;;1.10;0.60;;;;;;;18.14;100.00;99626.05;105384;1256;61053;-46
2023/05/16 11:19:39;;;;;;;2.20;0.60;;;;;;;18.12;100.00;99622.44;105820;1257;75574;-46
2023/05/16 11:22:07;;;;;;;4.80;0.60;;;;;;;18.10;100.00;99620.29;105343;1259;70191;-49
2023/05/16 11:24:35;;;;;;;1.50;0.50;;;;;;;18.08;100.00;99621.13;104754;1256;73373;-49